Time;durP1;ratioP1;P1;durP2;ratioP2;P2;SDS_P1;SDS_P2;PMS_P1;PMS_P2;Temp;Humidity;BMP_temperature;BMP_pressure;BME280_temperature;BME280_humidity;BME280_pressure;Samples;Min_cycle;Max_cycle;Signal;HPM_P1;HPM_P2
2022/08/23 00:02:27;;;;;;;13.95;4.55;;;;;;;19.00;85.70;100324.16;8307025;28;20449;-52
2022/08/23 00:06:27;;;;;;;11.68;4.65;;;;;;;18.98;85.80;100327.09;8320133;28;20072;-50
2022/08/23 00:10:28;;;;;;;8.02;4.65;;;;;;;18.93;86.31;100329.59;8319529;28;20068;-52
2022/08/23 00:14:32;;;;;;;12.23;5.50;;;;;;;18.84;86.84;100330.78;8320676;28;20052;-52
2022/08/23 00:18:32;;;;;;;12.55;4.93;;;;;;;18.82;87.20;100316.41;8314842;28;20564;-49
2022/08/23 00:22:33;;;;;;;12.30;4.93;;;;;;;18.80;86.76;100326.75;8288942;28;20451;-52
2022/08/23 00:27:12;;;;;;;11.13;4.60;;;;;;;19.10;85.78;100319.16;8286854;28;20280;-53
2022/08/23 00:31:13;;;;;;;9.40;5.00;;;;;;;18.87;86.99;100308.47;8287235;28;20488;-52
2022/08/23 00:35:15;;;;;;;10.90;5.20;;;;;;;18.96;87.24;100307.25;8304513;28;20407;-52
2022/08/23 00:39:17;;;;;;;14.75;5.75;;;;;;;18.91;88.42;100314.41;8296898;28;20103;-52
2022/08/23 00:47:47;;;;;;;10.00;4.80;;;;;;;18.53;89.16;100313.84;8325758;28;20034;-48
2022/08/23 00:52:19;;;;;;;11.85;5.72;;;;;;;18.24;90.59;100308.47;8324188;28;20038;-49
2022/08/23 00:56:23;;;;;;;12.80;5.43;;;;;;;18.30;90.42;100321.38;8325522;28;20033;-48
2022/08/23 01:00:24;;;;;;;13.13;6.18;;;;;;;18.03;91.52;100319.41;8304366;28;20034;-47
2022/08/23 01:04:29;;;;;;;13.02;6.75;;;;;;;18.32;89.69;100318.44;8292633;28;20539;-48
2022/08/23 01:08:31;;;;;;;14.63;6.75;;;;;;;18.15;89.91;100333.44;8292598;28;20100;-47
2022/08/23 01:12:38;;;;;;;16.67;6.35;;;;;;;18.04;90.23;100329.31;8300943;28;20037;-48
2022/08/23 01:16:48;;;;;;;14.45;5.95;;;;;;;18.19;89.39;100335.59;8283721;28;20463;-51
2022/08/23 01:21:04;;;;;;;10.52;5.60;;;;;;;18.04;89.68;100337.53;8289811;28;20045;-50
2022/08/23 01:25:08;;;;;;;14.50;6.80;;;;;;;17.86;91.12;100338.97;8308710;28;20048;-48
2022/08/23 01:29:09;;;;;;;;;;;;;;;17.85;90.63;100349.06;8294453;28;20543;-50
2022/08/23 01:33:09;;;;;;;15.18;6.72;;;;;;;17.93;89.39;100346.22;8292266;28;20330;-52
2022/08/23 01:37:10;;;;;;;16.88;7.47;;;;;;;17.90;87.92;100346.59;8291894;28;20037;-49
2022/08/23 01:41:11;;;;;;;14.35;6.95;;;;;;;17.88;88.22;100337.75;8309951;28;20398;-52
2022/08/23 01:45:13;;;;;;;15.48;7.10;;;;;;;17.92;88.13;100339.06;8324728;28;20034;-51
2022/08/23 01:49:14;;;;;;;15.10;7.70;;;;;;;17.57;89.78;100350.81;8323925;28;20038;-48
2022/08/23 01:53:15;;;;;;;16.98;7.72;;;;;;;17.58;89.66;100347.88;8303005;28;20041;-51
2022/08/23 01:57:16;;;;;;;13.35;7.95;;;;;;;17.56;88.46;100355.41;8294863;28;20038;-52
2022/08/23 02:01:17;;;;;;;13.98;7.90;;;;;;;17.38;88.93;100362.25;8304599;28;20026;-49
2022/08/23 02:05:18;;;;;;;11.23;7.80;;;;;;;17.29;88.76;100357.91;8298697;28;20483;-50
2022/08/23 02:09:18;;;;;;;14.20;7.15;;;;;;;17.36;88.69;100348.78;8291370;28;20538;-49
2022/08/23 02:13:19;;;;;;;17.27;7.63;;;;;;;17.27;88.81;100349.06;8297329;28;20300;-52
2022/08/23 02:17:20;;;;;;;14.38;7.45;;;;;;;17.35;88.35;100346.22;8303596;28;20766;-52
2022/08/23 02:21:22;;;;;;;13.20;7.07;;;;;;;17.26;88.49;100358.31;8317831;28;20068;-53
2022/08/23 02:25:22;;;;;;;12.25;6.65;;;;;;;17.18;88.84;100364.72;8323290;28;20129;-50
2022/08/23 02:29:24;;;;;;;11.90;7.38;;;;;;;17.20;88.67;100356.34;8312977;28;20073;-48
2022/08/23 02:33:25;;;;;;;14.68;6.55;;;;;;;17.13;89.58;100355.34;8313360;28;20096;-49
2022/08/23 02:37:25;;;;;;;14.82;6.88;;;;;;;17.04;89.63;100353.75;8290018;28;20034;-48
2022/08/23 02:41:25;;;;;;;11.57;7.03;;;;;;;16.92;90.18;100366.16;8290757;28;20042;-50
2022/08/23 02:45:27;;;;;;;11.18;6.93;;;;;;;16.80;90.81;100367.66;8290483;28;20116;-52
2022/08/23 02:49:28;;;;;;;11.48;7.07;;;;;;;16.77;91.44;100362.56;8311922;28;20038;-51
2022/08/23 02:53:29;;;;;;;12.57;7.80;;;;;;;16.69;91.43;100368.94;8290223;28;20045;-53
2022/08/23 02:57:29;;;;;;;10.65;6.93;;;;;;;16.66;91.63;100371.16;8292446;28;20037;-49
2022/08/23 03:01:33;;;;;;;9.27;6.95;;;;;;;16.56;91.93;100378.78;8300825;28;20449;-52
2022/08/23 03:05:34;;;;;;;11.27;7.40;;;;;;;16.66;91.39;100382.94;8305565;28;20488;-51
2022/08/23 03:09:34;;;;;;;12.52;8.10;;;;;;;16.54;92.65;100383.56;8295711;28;20463;-50
2022/08/23 03:13:35;;;;;;;14.43;7.75;;;;;;;16.60;92.05;100380.09;8289967;28;20384;-51
2022/08/23 03:17:35;;;;;;;11.88;7.30;;;;;;;16.68;91.56;100380.03;8288991;28;20033;-51
2022/08/23 03:21:37;;;;;;;12.30;7.57;;;;;;;16.73;91.46;100377.59;8319791;28;20092;-53
2022/08/23 03:25:38;;;;;;;15.32;7.72;;;;;;;16.52;92.28;100380.13;8292902;28;20083;-50
2022/08/23 03:29:38;;;;;;;10.82;7.75;;;;;;;16.57;92.04;100373.13;8298009;28;20049;-53
2022/08/23 03:33:39;;;;;;;9.90;6.40;;;;;;;16.76;90.88;100382.69;8286533;28;20104;-53
2022/08/23 03:37:40;;;;;;;11.57;7.47;;;;;;;16.73;91.45;100383.91;8288369;28;20112;-53
2022/08/23 03:41:40;;;;;;;9.90;6.45;;;;;;;16.45;93.08;100384.63;8288767;28;20049;-52
2022/08/23 03:45:41;;;;;;;12.77;7.88;;;;;;;16.32;93.68;100384.34;8289024;28;20053;-53
2022/08/23 03:49:41;;;;;;;15.70;7.30;;;;;;;16.12;94.28;100389.41;8292091;28;20045;-50
2022/08/23 03:53:42;;;;;;;14.60;8.20;;;;;;;16.30;93.77;100391.88;8293708;28;20049;-53
2022/08/23 03:57:42;;;;;;;9.55;7.53;;;;;;;16.20;93.61;100396.72;8298802;28;20064;-50
2022/08/23 04:01:43;;;;;;;12.35;7.50;;;;;;;16.15;95.07;100396.38;8300971;28;20103;-53
2022/08/23 04:05:43;;;;;;;12.05;7.95;;;;;;;16.10;95.18;100407.00;8293679;28;20107;-52
2022/08/23 04:09:44;;;;;;;15.68;8.30;;;;;;;15.84;96.61;100409.16;8290441;28;20054;-53
2022/08/23 04:13:44;;;;;;;10.82;7.63;;;;;;;16.17;94.94;100413.44;8297761;28;20128;-52
2022/08/23 04:17:45;;;;;;;18.33;8.25;;;;;;;16.25;94.38;100421.59;8302692;28;20553;-53
2022/08/23 04:21:49;;;;;;;12.07;7.10;;;;;;;16.08;94.49;100426.28;8295215;28;20042;-52
2022/08/23 04:25:50;;;;;;;12.93;7.88;;;;;;;15.74;97.75;100432.03;8295626;28;20407;-53
2022/08/23 04:29:50;;;;;;;15.43;9.10;;;;;;;15.88;96.53;100435.03;8298143;28;20072;-52
2022/08/23 04:33:52;;;;;;;15.73;8.10;;;;;;;15.94;96.46;100445.22;8301823;28;20042;-50
2022/08/23 04:37:52;;;;;;;11.88;8.07;;;;;;;15.97;96.30;100444.88;8293150;28;20566;-53
2022/08/23 04:42:24;;;;;;;19.65;9.38;;;;;;;16.10;95.65;100447.91;8294439;28;20411;-50
2022/08/23 04:46:15;;;;;;;17.27;8.27;;;;;;;16.20;95.23;100456.72;8303481;28;20038;-49
2022/08/23 04:50:15;;;;;;;20.92;8.43;;;;;;;16.15;95.39;100454.53;8307064;28;20053;-53
2022/08/23 04:54:16;;;;;;;17.27;8.98;;;;;;;16.40;94.32;100474.34;8304734;28;20038;-53
2022/08/23 04:58:17;;;;;;;17.55;8.27;;;;;;;16.15;94.82;100464.56;8297437;28;20033;-53
2022/08/23 05:02:19;;;;;;;21.55;9.27;;;;;;;16.26;93.81;100470.50;8308827;28;20522;-53
2022/08/23 05:06:20;;;;;;;23.40;8.32;;;;;;;16.36;93.55;100473.00;8304920;28;20561;-53
2022/08/23 05:10:21;;;;;;;15.40;8.48;;;;;;;16.47;92.96;100486.28;8314194;28;20048;-52
2022/08/23 05:14:21;;;;;;;11.85;8.13;;;;;;;16.63;91.84;100486.19;8306183;28;20767;-53
2022/08/23 05:18:22;;;;;;;12.20;7.07;;;;;;;16.81;90.88;100484.03;8306048;28;20037;-51
2022/08/23 05:22:23;;;;;;;9.55;7.15;;;;;;;17.04;90.06;100484.84;8301970;28;20044;-51
2022/08/23 05:26:23;;;;;;;12.52;7.43;;;;;;;17.22;88.90;100477.19;8313812;28;20034;-52
2022/08/23 05:30:24;;;;;;;16.10;7.68;;;;;;;17.40;88.33;100486.78;8304267;28;20475;-53
2022/08/23 05:34:24;;;;;;;13.40;6.78;;;;;;;17.59;86.98;100486.28;8291236;28;20478;-50
2022/08/23 05:38:25;;;;;;;14.00;7.15;;;;;;;17.98;85.29;100486.03;8290713;28;20042;-51
2022/08/23 05:42:26;;;;;;;10.00;6.97;;;;;;;17.86;86.16;100495.72;8292722;28;20046;-53
2022/08/23 05:46:26;;;;;;;12.95;7.20;;;;;;;17.74;86.45;100496.38;8296057;28;20116;-54
2022/08/23 05:50:26;;;;;;;13.95;6.93;;;;;;;17.78;87.06;100511.38;8292277;28;20046;-53
2022/08/23 05:54:27;;;;;;;15.60;7.25;;;;;;;17.66;87.16;100508.25;8294902;28;20125;-53
2022/08/23 05:58:27;;;;;;;14.00;8.05;;;;;;;17.61;88.13;100510.69;8297664;28;20165;-53
2022/08/23 06:02:28;;;;;;;10.63;7.73;;;;;;;17.70;88.02;100512.31;8294061;28;20080;-53
2022/08/23 06:06:28;;;;;;;11.80;6.95;;;;;;;18.02;86.98;100508.38;8291184;28;20774;-52
2022/08/23 06:10:29;;;;;;;9.70;6.97;;;;;;;18.12;85.89;100520.75;8297473;28;20034;-53
2022/08/23 06:14:29;;;;;;;13.40;7.97;;;;;;;18.28;85.67;100520.56;8298208;28;20072;-52
2022/08/23 06:18:30;;;;;;;16.05;7.60;;;;;;;18.39;84.35;100522.81;8311492;28;20034;-53
2022/08/23 06:22:30;;;;;;;11.68;7.32;;;;;;;18.48;84.77;100527.16;8294374;28;20112;-53
2022/08/23 06:26:34;;;;;;;16.88;6.63;;;;;;;18.77;84.50;100529.84;8303611;28;20046;-53
2022/08/23 06:30:38;;;;;;;14.38;8.00;;;;;;;18.72;83.91;100529.56;8290352;28;20379;-51
2022/08/23 06:34:38;;;;;;;17.23;7.43;;;;;;;18.83;84.19;100537.28;8304211;28;20029;-51
2022/08/23 06:38:40;;;;;;;12.40;6.57;;;;;;;18.90;84.00;100543.69;8296660;28;20032;-48
2022/08/23 06:42:41;;;;;;;11.75;6.68;;;;;;;19.22;83.54;100547.84;8292275;28;20112;-47
2022/08/23 06:46:41;;;;;;;15.32;6.90;;;;;;;19.46;82.55;100556.53;8298612;28;20048;-47
2022/08/23 06:50:41;;;;;;;15.77;6.80;;;;;;;19.73;80.87;100545.81;8297333;28;20037;-47
2022/08/23 06:54:43;;;;;;;9.60;6.63;;;;;;;19.91;81.04;100557.13;8299234;28;20054;-47
2022/08/23 06:58:43;;;;;;;14.05;6.95;;;;;;;20.17;79.85;100549.09;8302394;28;20279;-48
2022/08/23 07:02:44;;;;;;;17.75;7.53;;;;;;;20.54;78.37;100545.94;8306110;28;20496;-50
2022/08/23 07:06:45;;;;;;;17.58;7.07;;;;;;;20.78;78.30;100557.25;8298690;28;20042;-51
2022/08/23 07:10:45;;;;;;;19.00;6.93;;;;;;;21.10;76.24;100552.94;8303996;28;20053;-48
2022/08/23 07:14:46;;;;;;;15.02;6.32;;;;;;;21.53;74.49;100547.94;8293967;28;20089;-50
2022/08/23 07:18:48;;;;;;;16.23;6.43;;;;;;;21.78;73.61;100552.66;8293564;28;20034;-50
2022/08/23 07:22:49;;;;;;;23.88;5.93;;;;;;;21.88;73.28;100549.44;8289762;28;20056;-47
2022/08/23 07:26:51;;;;;;;17.70;5.65;;;;;;;22.00;72.23;100551.34;8301711;28;20041;-48
2022/08/23 07:30:51;;;;;;;18.20;6.85;;;;;;;22.24;71.17;100553.44;8284187;28;20128;-47
2022/08/23 07:34:52;;;;;;;25.50;6.50;;;;;;;22.32;72.06;100555.94;8310185;28;20041;-49
2022/08/23 07:38:53;;;;;;;20.88;6.13;;;;;;;22.64;70.60;100555.06;8298507;28;20045;-50
2022/08/23 07:42:56;;;;;;;19.55;5.38;;;;;;;22.95;69.44;100563.41;8305998;28;20040;-48
2022/08/23 07:46:56;;;;;;;16.58;5.15;;;;;;;23.35;68.82;100563.19;8288989;28;20038;-50
2022/08/23 07:51:00;;;;;;;11.50;4.07;;;;;;;23.86;66.81;100566.63;8292212;28;20061;-49
2022/08/23 07:55:00;;;;;;;18.17;4.83;;;;;;;24.24;67.14;100570.16;8293005;28;20045;-51
2022/08/23 07:59:01;;;;;;;15.48;5.43;;;;;;;24.26;65.00;100573.53;8304762;28;20277;-50
2022/08/23 08:03:01;;;;;;;12.18;4.47;;;;;;;24.80;64.07;100570.81;8286125;28;20041;-48
2022/08/23 08:07:02;;;;;;;13.07;4.47;;;;;;;25.15;63.15;100563.53;8289447;28;20407;-47
2022/08/23 08:11:02;;;;;;;16.50;3.95;;;;;;;25.25;62.45;100577.66;8285412;28;20057;-49
2022/08/23 08:15:03;;;;;;;11.13;3.58;;;;;;;25.64;61.18;100571.56;8285248;28;20059;-47
2022/08/23 08:19:07;;;;;;;10.13;3.60;;;;;;;25.75;61.07;100579.06;8280057;28;20034;-48
2022/08/23 08:23:07;;;;;;;13.57;3.50;;;;;;;26.18;60.51;100576.88;8306409;28;20033;-51
2022/08/23 08:27:08;;;;;;;6.55;2.58;;;;;;;26.02;59.67;100572.03;8294087;28;20111;-51
2022/08/23 08:31:09;;;;;;;8.30;3.10;;;;;;;25.89;60.52;100576.94;8314422;28;20135;-52
2022/08/23 08:35:10;;;;;;;9.55;2.72;;;;;;;26.35;59.26;100577.81;8286299;28;20590;-50
2022/08/23 08:39:15;;;;;;;8.43;2.63;;;;;;;26.67;58.89;100570.84;8265906;28;20413;-50
2022/08/23 08:43:33;;;;;;;9.65;3.13;;;;;;;27.15;57.79;100570.47;8287272;28;20497;-50
2022/08/23 08:47:58;;;;;;;10.32;2.95;;;;;;;27.34;57.64;100576.69;8288904;28;20446;-50
2022/08/23 08:52:10;;;;;;;10.45;2.97;;;;;;;27.66;56.84;100583.41;8290969;28;20041;-48
2022/08/23 08:56:20;;;;;;;10.07;2.47;;;;;;;27.88;56.47;100584.41;8342090;28;20055;-48
2022/08/23 09:00:25;;;;;;;11.32;2.92;;;;;;;27.64;56.11;100577.25;8325358;28;20517;-48
2022/08/23 09:04:26;;;;;;;10.18;3.42;;;;;;;27.35;56.55;100578.38;8325705;28;20026;-47
2022/08/23 09:08:49;;;;;;;13.70;3.03;;;;;;;27.54;56.50;100579.84;8299961;28;20079;-51
2022/08/23 09:13:02;;;;;;;9.65;2.58;;;;;;;28.16;56.50;100587.09;8306486;28;20149;-49
2022/08/23 09:17:08;;;;;;;12.43;2.73;;;;;;;29.00;55.03;100580.28;8320196;28;20030;-48
2022/08/23 09:21:09;;;;;;;12.05;2.90;;;;;;;28.67;54.09;100580.38;8291698;28;20034;-47
2022/08/23 09:25:12;;;;;;;14.70;2.75;;;;;;;28.70;54.78;100577.94;8292370;28;20045;-51
2022/08/23 09:29:20;;;;;;;11.18;2.75;;;;;;;28.78;53.66;100574.69;8299052;28;20045;-49
2022/08/23 09:33:25;;;;;;;11.10;2.33;;;;;;;29.16;53.00;100566.31;8296630;28;20033;-53
2022/08/23 09:37:26;;;;;;;9.30;2.53;;;;;;;29.48;53.58;100570.00;8292529;28;20453;-51
2022/08/23 09:41:32;;;;;;;14.05;2.72;;;;;;;29.33;51.74;100569.84;8292338;28;20040;-52
2022/08/23 09:45:37;;;;;;;13.35;2.65;;;;;;;30.47;49.83;100565.63;8292618;28;20487;-51
2022/08/23 09:49:41;;;;;;;9.00;2.80;;;;;;;32.29;47.17;100568.69;8293616;28;20411;-52
2022/08/23 09:53:49;;;;;;;8.85;2.08;;;;;;;33.30;45.25;100556.06;8292082;28;20579;-53
2022/08/23 09:57:49;;;;;;;12.02;2.85;;;;;;;34.20;43.77;100559.41;8292098;28;20030;-55
2022/08/23 10:01:52;;;;;;;9.85;2.60;;;;;;;35.56;42.02;100557.53;8301379;28;20041;-53
2022/08/23 10:05:55;;;;;;;6.63;2.05;;;;;;;35.31;41.73;100555.06;8298033;28;20033;-52
2022/08/23 10:10:24;;;;;;;7.82;2.25;;;;;;;36.87;39.26;100561.75;8293214;28;20076;-53
2022/08/23 10:14:26;;;;;;;11.32;2.47;;;;;;;36.10;40.52;100556.97;8290807;28;20043;-52
2022/08/23 10:18:52;;;;;;;8.63;2.55;;;;;;;36.96;39.63;100554.22;8298149;28;20133;-54
2022/08/23 10:23:34;;;;;;;11.68;2.88;;;;;;;37.41;40.15;100550.44;8321883;28;20116;-54
2022/08/23 10:32:40;;;;;;;8.93;2.05;;;;;;;37.41;39.19;100549.59;8319046;28;20053;-54
2022/08/23 10:37:20;;;;;;;9.77;2.20;;;;;;;36.43;39.70;100549.34;8312906;28;20066;-53
2022/08/23 10:41:59;;;;;;;9.32;1.77;;;;;;;38.02;39.08;100547.00;8304903;28;20063;-54
2022/08/23 10:46:01;;;;;;;6.20;1.75;;;;;;;37.96;38.02;100545.47;8296318;28;20045;-54
2022/08/23 10:50:11;;;;;;;9.25;1.83;;;;;;;38.49;37.21;100552.00;8298742;28;20511;-49
2022/08/23 10:54:17;;;;;;;10.73;2.30;;;;;;;38.25;37.84;100545.03;8289346;28;20446;-50
2022/08/23 10:58:24;;;;;;;4.93;1.98;;;;;;;38.78;37.36;100540.19;8293160;28;20116;-49
2022/08/23 11:02:51;;;;;;;5.82;1.60;;;;;;;38.34;37.76;100540.28;8293161;28;20033;-53
2022/08/23 11:06:56;;;;;;;8.70;1.80;;;;;;;39.37;36.42;100531.06;8298452;28;20370;-50
2022/08/23 11:10:57;;;;;;;5.07;1.45;;;;;;;38.28;36.83;100535.91;8286412;28;20076;-53
2022/08/23 11:15:18;;;;;;;6.47;1.90;;;;;;;36.62;39.40;100531.22;8288441;28;20042;-53
2022/08/23 11:19:48;;;;;;;10.52;1.95;;;;;;;38.27;38.18;100535.06;8291082;28;20057;-50
2022/08/23 11:24:12;;;;;;;7.85;2.05;;;;;;;39.40;36.82;100533.25;8293430;28;20049;-53
2022/08/23 11:28:37;;;;;;;8.38;2.03;;;;;;;39.58;35.88;100520.78;8303094;28;20033;-53
2022/08/23 11:32:43;;;;;;;10.32;1.77;;;;;;;37.61;38.06;100514.41;8319889;28;20502;-51
2022/08/23 11:41:34;;;;;;;6.60;2.13;;;;;;;36.83;38.10;100526.88;8319677;28;20467;-51
2022/08/23 11:45:45;;;;;;;5.13;1.70;;;;;;;36.98;38.81;100515.28;8315321;28;20041;-54
2022/08/23 11:50:22;;;;;;;7.13;1.45;;;;;;;35.69;40.73;100517.38;8315860;28;20400;-51
2022/08/23 11:55:02;;;;;;;4.38;1.60;;;;;;;36.86;39.20;100503.69;8347420;28;20061;-52
2022/08/23 11:59:33;;;;;;;8.35;2.05;;;;;;;35.22;40.80;100503.44;8312114;28;20037;-52
2022/08/23 12:12:29;;;;;;;9.55;2.53;;;;;;;32.03;45.34;100488.69;8392555;27;20362;-51
2022/08/23 12:16:33;;;;;;;6.10;1.77;;;;;;;31.53;46.15;100488.69;8386965;28;20533;-54
2022/08/23 12:20:35;;;;;;;7.18;1.65;;;;;;;32.00;45.50;100483.66;8387003;28;20032;-52
2022/08/23 12:24:45;;;;;;;3.13;1.70;;;;;;;31.85;45.73;100480.88;8389344;28;20032;-52
2022/08/23 12:28:50;;;;;;;5.53;1.48;;;;;;;32.70;44.34;100477.91;8384561;28;20046;-53
2022/08/23 12:37:14;;;;;;;6.30;1.98;;;;;;;31.90;46.22;100483.69;8394852;27;20912;-50
2022/08/23 12:41:21;;;;;;;9.85;1.75;;;;;;;32.11;45.93;100476.94;8392345;27;20514;-48
2022/08/23 12:45:22;;;;;;;5.05;1.92;;;;;;;31.35;46.09;100486.44;8382631;27;20080;-52
2022/08/23 12:49:29;;;;;;;9.13;2.38;;;;;;;31.24;47.16;100474.38;8376516;27;20045;-50
2022/08/23 12:53:34;;;;;;;7.28;1.75;;;;;;;31.21;46.95;100479.66;8392643;27;20509;-51
2022/08/23 12:57:38;;;;;;;5.28;1.70;;;;;;;31.26;46.94;100476.88;8382301;27;20041;-52
2022/08/23 13:01:40;;;;;;;5.40;1.60;;;;;;;31.89;46.81;100481.97;8384338;27;20055;-51
2022/08/23 13:05:52;;;;;;;7.30;1.88;;;;;;;32.04;46.06;100490.38;8353417;28;20537;-50
2022/08/23 13:09:53;;;;;;;5.90;1.70;;;;;;;32.72;45.69;100486.84;8372689;28;20032;-48
2022/08/23 13:13:54;;;;;;;8.18;1.95;;;;;;;32.93;44.94;100482.84;8380158;28;20069;-47
2022/08/23 13:18:00;;;;;;;9.30;1.67;;;;;;;33.03;44.61;100477.22;8363908;27;20032;-48
2022/08/23 13:22:10;;;;;;;6.72;1.75;;;;;;;33.35;44.34;100479.50;8416418;27;20037;-50
2022/08/23 13:26:35;;;;;;;9.02;1.42;;;;;;;33.02;44.70;100475.53;8380154;27;20063;-49
2022/08/23 13:30:37;;;;;;;5.95;1.77;;;;;;;33.24;43.52;100478.75;8369315;28;20044;-49
2022/08/23 13:34:42;;;;;;;8.52;1.80;;;;;;;32.56;45.33;100474.03;8372570;28;20045;-51
2022/08/23 13:38:43;;;;;;;5.50;1.52;;;;;;;32.07;45.39;100478.59;8370285;28;20037;-52
2022/08/23 13:42:52;;;;;;;9.00;1.75;;;;;;;31.42;46.50;100475.81;8371327;28;20498;-49
2022/08/23 13:46:53;;;;;;;6.05;1.52;;;;;;;32.24;46.00;100474.38;8353208;28;20060;-48
2022/08/23 13:51:13;;;;;;;3.65;1.55;;;;;;;31.87;45.51;100473.88;8358923;28;20036;-48
2022/08/23 13:55:14;;;;;;;7.88;1.55;;;;;;;31.71;46.13;100479.75;8374469;28;20037;-48
2022/08/23 13:59:26;;;;;;;7.90;1.48;;;;;;;31.84;46.49;100473.63;8350609;28;20060;-49
2022/08/23 14:03:29;;;;;;;11.90;1.55;;;;;;;31.55;47.33;100469.66;8327520;28;20056;-48
2022/08/23 14:07:30;;;;;;;6.23;1.27;;;;;;;31.23;46.99;100475.50;8349240;28;20046;-48
2022/08/23 14:11:31;;;;;;;4.80;1.25;;;;;;;31.23;47.63;100474.63;8351596;28;20470;-48
2022/08/23 14:15:31;;;;;;;4.70;1.45;;;;;;;31.35;47.37;100475.25;8356516;28;20076;-48
2022/08/23 14:19:32;;;;;;;4.07;1.50;;;;;;;31.21;47.69;100474.06;8357874;28;20040;-49
2022/08/23 14:23:32;;;;;;;7.45;1.48;;;;;;;31.50;47.28;100472.47;8338879;28;20170;-49
2022/08/23 14:27:33;;;;;;;5.13;1.55;;;;;;;31.54;47.46;100473.59;8345241;28;20041;-50
2022/08/23 14:31:34;;;;;;;7.50;1.95;;;;;;;31.00;47.46;100480.72;8335614;28;20547;-51
2022/08/23 14:35:34;;;;;;;6.03;1.60;;;;;;;31.12;47.43;100475.72;8356477;28;20417;-52
2022/08/23 14:39:35;;;;;;;6.40;1.17;;;;;;;31.51;47.96;100475.00;8344017;28;20116;-51
2022/08/23 14:43:35;;;;;;;4.22;1.25;;;;;;;31.50;47.12;100478.88;8341138;28;20107;-55
2022/08/23 14:47:37;;;;;;;7.22;1.48;;;;;;;31.60;47.56;100483.66;8354100;28;20175;-54
2022/08/23 14:51:41;;;;;;;6.25;1.45;;;;;;;31.26;48.04;100471.28;8359179;28;20132;-52
2022/08/23 14:55:42;;;;;;;5.05;1.45;;;;;;;31.04;48.18;100474.31;8341850;28;20550;-54
2022/08/23 14:59:42;;;;;;;3.53;1.30;;;;;;;31.06;48.36;100476.81;8333702;28;20432;-52
2022/08/23 15:03:56;;;;;;;5.00;1.10;;;;;;;30.99;48.36;100474.31;8335048;28;20033;-52
2022/08/23 15:07:56;;;;;;;;;;;;;;;31.20;48.04;100480.78;8328543;28;20039;-54
2022/08/23 15:11:56;;;;;;;4.87;1.60;;;;;;;31.39;48.81;100487.53;8341610;28;19923;-54
2022/08/23 15:15:57;;;;;;;3.63;1.23;;;;;;;30.85;48.98;100473.13;8346122;28;20098;-52
2022/08/23 15:19:58;;;;;;;6.72;1.17;;;;;;;30.55;49.11;100477.75;8344237;28;20394;-51
2022/08/23 15:23:58;;;;;;;4.63;1.27;;;;;;;30.52;49.72;100467.13;8347927;28;20036;-50
2022/08/23 15:28:00;;;;;;;8.13;1.33;;;;;;;30.64;49.69;100476.09;8342683;28;20045;-53
2022/08/23 15:32:01;;;;;;;7.03;1.40;;;;;;;30.47;49.89;100462.34;8351860;28;20519;-54
2022/08/23 15:36:02;;;;;;;8.27;1.40;;;;;;;30.38;50.59;100463.97;8345819;28;20391;-53
2022/08/23 15:40:05;;;;;;;4.47;1.00;;;;;;;30.29;50.49;100455.28;8324426;28;20037;-51
2022/08/23 15:44:05;;;;;;;4.88;1.02;;;;;;;30.36;50.05;100455.03;8328484;28;20434;-54
2022/08/23 15:48:15;;;;;;;3.53;0.98;;;;;;;30.38;50.07;100459.22;8344700;28;20029;-54
2022/08/23 15:52:16;;;;;;;4.13;1.15;;;;;;;30.50;49.90;100466.53;8341437;28;20398;-53
2022/08/23 15:56:21;;;;;;;5.40;1.02;;;;;;;30.51;49.74;100469.06;8354421;28;20037;-53
2022/08/23 16:00:23;;;;;;;3.60;1.23;;;;;;;30.36;49.81;100461.47;8383106;28;20152;-54
2022/08/23 16:04:23;;;;;;;3.60;0.85;;;;;;;30.53;50.24;100460.41;8354738;28;20055;-50
2022/08/23 16:08:28;;;;;;;2.75;1.05;;;;;;;30.40;49.82;100459.81;8341136;28;20037;-55
2022/08/23 16:12:28;;;;;;;4.88;1.25;;;;;;;30.21;50.18;100458.59;8340616;28;20107;-52
2022/08/23 16:16:32;;;;;;;4.68;1.02;;;;;;;30.17;50.33;100451.84;8347399;28;20107;-53
2022/08/23 16:20:33;;;;;;;4.72;1.10;;;;;;;30.23;50.10;100452.75;8349813;28;20045;-51
2022/08/23 16:24:33;;;;;;;3.77;0.90;;;;;;;30.23;50.49;100459.16;8341059;28;20043;-52
2022/08/23 16:28:34;;;;;;;1.75;0.80;;;;;;;30.32;50.42;100460.34;8345408;28;20326;-54
2022/08/23 16:32:34;;;;;;;6.43;1.63;;;;;;;30.22;50.76;100457.47;8353107;28;20406;-52
2022/08/23 16:36:35;;;;;;;8.13;1.20;;;;;;;30.16;50.80;100461.31;8341267;28;20119;-51
2022/08/23 16:40:36;;;;;;;5.22;1.20;;;;;;;30.21;50.18;100464.16;8334517;28;20299;-50
2022/08/23 16:44:36;;;;;;;5.10;0.95;;;;;;;30.15;50.48;100472.72;8328382;28;20407;-50
2022/08/23 16:48:37;;;;;;;5.57;1.08;;;;;;;30.11;49.84;100466.88;8346122;28;20055;-54
2022/08/23 16:52:37;;;;;;;1.40;0.80;;;;;;;30.02;50.68;100468.50;8348740;28;20034;-52
2022/08/23 16:56:39;;;;;;;2.03;0.98;;;;;;;30.01;50.20;100475.16;8373168;28;20080;-52
2022/08/23 17:00:40;;;;;;;5.22;1.00;;;;;;;29.96;50.88;100461.19;8348409;28;20037;-51
2022/08/23 17:04:40;;;;;;;4.20;1.05;;;;;;;29.80;51.19;100466.91;8323518;28;20062;-53
2022/08/23 17:08:41;;;;;;;3.45;1.23;;;;;;;29.83;50.42;100460.81;8332871;28;20048;-51
2022/08/23 17:12:44;;;;;;;4.38;0.90;;;;;;;29.79;50.49;100468.03;8330636;28;20044;-52
2022/08/23 17:16:45;;;;;;;2.97;0.95;;;;;;;29.77;50.63;100479.47;8347118;28;20417;-51
2022/08/23 17:20:46;;;;;;;3.53;0.98;;;;;;;29.72;50.72;100476.63;8348172;28;20041;-50
2022/08/23 17:24:46;;;;;;;4.00;1.30;;;;;;;29.65;50.59;100473.22;8349960;28;20120;-51
2022/08/23 17:28:47;;;;;;;3.22;0.93;;;;;;;29.60;50.70;100481.50;8352655;28;20091;-52
2022/08/23 17:32:49;;;;;;;2.30;1.17;;;;;;;29.53;50.95;100480.88;8342247;28;20130;-51
2022/08/23 17:36:53;;;;;;;3.58;1.00;;;;;;;29.49;50.50;100481.69;8357037;28;20041;-50
2022/08/23 17:40:53;;;;;;;4.30;1.08;;;;;;;29.49;50.50;100485.28;8361178;28;20036;-52
2022/08/23 17:44:54;;;;;;;4.43;1.00;;;;;;;29.34;51.20;100485.19;8348461;28;20125;-52
2022/08/23 17:48:56;;;;;;;2.70;0.90;;;;;;;29.23;51.46;100483.38;8355198;28;20036;-52
2022/08/23 17:52:56;;;;;;;7.07;1.25;;;;;;;29.11;51.90;100491.06;8348726;28;20048;-53
2022/08/23 17:56:59;;;;;;;8.27;1.23;;;;;;;29.01;51.54;100496.47;8354933;28;20037;-49
2022/08/23 18:01:00;;;;;;;2.28;1.00;;;;;;;28.96;51.74;100504.78;8350680;28;20517;-50
2022/08/23 18:05:00;;;;;;;4.00;1.25;;;;;;;28.90;51.99;100497.47;8344162;28;20443;-52
2022/08/23 18:09:05;;;;;;;3.72;0.90;;;;;;;28.80;52.40;100511.25;8346999;28;20091;-50
2022/08/23 18:13:05;;;;;;;7.78;2.30;;;;;;;28.75;52.81;100511.19;8348747;28;20434;-51
2022/08/23 18:17:06;;;;;;;4.32;1.00;;;;;;;28.62;52.57;100514.38;8348765;28;20029;-51
2022/08/23 18:21:08;;;;;;;4.90;1.08;;;;;;;28.25;54.61;100529.94;8348978;28;20041;-52
2022/08/23 18:25:10;;;;;;;3.17;1.13;;;;;;;28.16;54.30;100528.69;8349107;27;20044;-51
2022/08/23 18:29:11;;;;;;;5.03;1.00;;;;;;;27.88;56.11;100528.81;8346558;28;20453;-51
2022/08/23 18:33:12;;;;;;;3.17;0.90;;;;;;;27.75;56.23;100534.66;8341498;28;20045;-52
2022/08/23 18:37:15;;;;;;;5.80;1.10;;;;;;;27.62;55.81;100534.97;8346097;28;20044;-51
2022/08/23 18:41:16;;;;;;;5.15;1.13;;;;;;;27.53;56.66;100542.88;8350237;28;20058;-52
2022/08/23 18:45:17;;;;;;;3.70;0.93;;;;;;;27.51;55.90;100541.47;8340937;28;20080;-52
2022/08/23 18:49:17;;;;;;;4.03;1.00;;;;;;;27.32;56.64;100540.00;8365498;28;20044;-53
2022/08/23 18:53:19;;;;;;;2.55;0.90;;;;;;;27.21;56.59;100538.06;8356835;28;20053;-53
2022/08/23 18:57:19;;;;;;;3.85;1.00;;;;;;;27.10;56.91;100547.28;8363144;28;20047;-51
2022/08/23 19:01:27;;;;;;;3.33;1.00;;;;;;;26.77;57.88;100551.63;8352117;28;20491;-52
2022/08/23 19:05:28;;;;;;;3.35;1.02;;;;;;;26.68;58.04;100550.31;8339779;28;20034;-51
2022/08/23 19:09:28;;;;;;;2.45;0.80;;;;;;;26.61;58.31;100557.91;8355420;28;20559;-51
2022/08/23 19:13:29;;;;;;;7.00;1.10;;;;;;;26.12;60.10;100566.75;8349226;28;20414;-51
2022/08/23 19:17:29;;;;;;;3.28;0.98;;;;;;;26.54;58.24;100571.06;8350644;28;20045;-50